In Rescue
 
Open Full Screen Window  High Contrast Mode
September 18, 2020 8:44 PM CDT
Weather Information
Wind Direction
  ---
Wind Speed
  00 kt (0 mph)
Wind Gust
  00 kt (0 mph)
Altimeter
30.30 in
Visibility
10 SM
Temperature
05° C
41° F
Dewpoint
00° C
32° F
Humidity
70%
1hr Rain Fall
00.00 in.
24hr Rain Fall
00.00 in.
Sky Condition
Broken @ 12,000 ft
VFR

METAR KCKC 190144Z AUTO 00000KT 10SM BKN120 05/00 A3030 RMK AO2

FAA Disclaimer: The data displayed is for advisory purposes only and is not to be used for flight planning or operations.